createdAt,value
2019-03-26T00:00:59.010Z,1020.26
2019-03-26T00:01:58.997Z,1020.33
2019-03-26T00:02:58.988Z,1020.29
2019-03-26T00:04:05.642Z,1020.27
2019-03-26T00:04:59.989Z,1020.25
2019-03-26T00:05:58.987Z,1020.20
2019-03-26T00:06:59.830Z,1020.24
2019-03-26T00:07:58.968Z,1020.30
2019-03-26T00:08:58.930Z,1020.26
2019-03-26T00:09:58.948Z,1020.31
2019-03-26T00:10:58.908Z,1020.27
2019-03-26T00:11:58.917Z,1020.30
2019-03-26T00:12:58.889Z,1020.30
2019-03-26T00:13:58.878Z,1020.34
2019-03-26T00:14:58.886Z,1020.36
2019-03-26T00:15:58.860Z,1020.35
2019-03-26T00:16:58.846Z,1020.36
2019-03-26T00:17:58.839Z,1020.37
2019-03-26T00:18:58.820Z,1020.39
2019-03-26T00:19:58.832Z,1020.36
2019-03-26T00:20:58.827Z,1020.37
2019-03-26T00:21:58.793Z,1020.38
2019-03-26T00:22:58.798Z,1020.38
2019-03-26T00:23:58.786Z,1020.45
2019-03-26T00:24:58.758Z,1020.37
2019-03-26T00:25:58.771Z,1020.46
2019-03-26T00:26:58.747Z,1020.31
2019-03-26T00:27:58.741Z,1020.35
2019-03-26T00:28:58.715Z,1020.38
2019-03-26T00:29:58.717Z,1020.30
2019-03-26T00:30:58.731Z,1020.31
2019-03-26T00:31:58.712Z,1020.32
2019-03-26T00:32:58.765Z,1020.33
2019-03-26T00:33:58.676Z,1020.30
2019-03-26T00:34:58.679Z,1020.28
2019-03-26T00:35:58.735Z,1020.25
2019-03-26T00:36:58.636Z,1020.27
2019-03-26T00:37:58.745Z,1020.24
2019-03-26T00:38:58.620Z,1020.27
2019-03-26T00:39:58.618Z,1020.31
2019-03-26T00:40:58.611Z,1020.29
2019-03-26T00:41:58.645Z,1020.32
2019-03-26T00:42:58.583Z,1020.24
2019-03-26T00:43:58.558Z,1020.27
2019-03-26T00:44:58.554Z,1020.28
2019-03-26T00:45:58.570Z,1020.28
2019-03-26T00:46:58.540Z,1020.23
2019-03-26T00:47:58.517Z,1020.23
2019-03-26T00:48:58.514Z,1020.20
2019-03-26T00:49:58.495Z,1020.21
2019-03-26T00:50:58.505Z,1020.25
2019-03-26T00:51:58.495Z,1020.30
2019-03-26T00:52:58.468Z,1020.28
2019-03-26T00:53:58.456Z,1020.19
2019-03-26T00:54:58.442Z,1020.26
2019-03-26T00:55:58.462Z,1020.23
2019-03-26T00:56:58.459Z,1020.25
2019-03-26T00:58:01.412Z,1020.22
2019-03-26T00:58:58.406Z,1020.19
2019-03-26T00:59:58.389Z,1020.19
2019-03-26T01:00:58.422Z,1020.19
2019-03-26T01:01:58.376Z,1020.21
2019-03-26T01:02:58.390Z,1020.18
2019-03-26T01:03:58.351Z,1020.22
2019-03-26T01:04:58.358Z,1020.24
2019-03-26T01:05:58.366Z,1020.22
2019-03-26T01:06:58.313Z,1020.24
2019-03-26T01:07:58.307Z,1020.23
2019-03-26T01:08:58.315Z,1020.23
2019-03-26T01:09:58.285Z,1020.30
2019-03-26T01:10:58.282Z,1020.32
2019-03-26T01:11:58.297Z,1020.29
2019-03-26T01:12:58.248Z,1020.34
2019-03-26T01:13:58.258Z,1020.30
2019-03-26T01:14:58.234Z,1020.25
2019-03-26T01:15:58.233Z,1020.33
2019-03-26T01:16:58.241Z,1020.36
2019-03-26T01:17:58.226Z,1020.33
2019-03-26T01:18:58.187Z,1020.38
2019-03-26T01:19:58.196Z,1020.41
2019-03-26T01:20:58.176Z,1020.37
2019-03-26T01:21:58.175Z,1020.29
2019-03-26T01:22:58.160Z,1020.34
2019-03-26T01:23:58.141Z,1020.31
2019-03-26T01:24:58.156Z,1020.31
2019-03-26T01:25:58.128Z,1020.28
2019-03-26T01:26:58.135Z,1020.24
2019-03-26T01:27:58.097Z,1020.23
2019-03-26T01:28:58.082Z,1020.24
2019-03-26T01:29:58.076Z,1020.26
2019-03-26T01:30:58.069Z,1020.22
2019-03-26T01:31:58.067Z,1020.23
2019-03-26T01:32:58.040Z,1020.18
2019-03-26T01:33:58.035Z,1020.18
2019-03-26T01:34:58.018Z,1020.16
2019-03-26T01:35:58.018Z,1020.13
2019-03-26T01:36:58.034Z,1020.14
2019-03-26T01:37:57.987Z,1020.16
2019-03-26T01:38:57.978Z,1020.12
2019-03-26T01:39:57.980Z,1020.15
2019-03-26T01:40:57.976Z,1020.19
2019-03-26T01:41:57.992Z,1020.19
2019-03-26T01:42:58.006Z,1020.20
2019-03-26T01:43:57.940Z,1020.14
2019-03-26T01:44:57.912Z,1020.22
2019-03-26T01:45:57.914Z,1020.20
2019-03-26T01:46:57.926Z,1020.15
2019-03-26T01:47:57.882Z,1020.18
2019-03-26T01:48:57.875Z,1020.13
2019-03-26T01:49:57.872Z,1020.09
2019-03-26T01:50:57.854Z,1020.13
2019-03-26T01:51:57.861Z,1020.18
2019-03-26T01:52:57.826Z,1020.16
2019-03-26T01:53:57.820Z,1020.17
2019-03-26T01:54:57.824Z,1020.15
2019-03-26T01:55:57.842Z,1020.14
2019-03-26T01:56:57.814Z,1020.16
2019-03-26T01:57:58.345Z,1020.13
2019-03-26T01:58:57.765Z,1020.16
2019-03-26T01:59:57.764Z,1020.17
2019-03-26T02:00:57.810Z,1020.12
2019-03-26T02:01:57.767Z,1020.10
2019-03-26T02:02:57.726Z,1020.20
2019-03-26T02:03:57.726Z,1020.11
2019-03-26T02:05:00.184Z,1020.13
2019-03-26T02:05:57.700Z,1020.20
2019-03-26T02:06:57.712Z,1020.11
2019-03-26T02:07:57.670Z,1020.18
2019-03-26T02:08:57.668Z,1020.15
2019-03-26T02:09:57.659Z,1020.10
2019-03-26T02:10:57.644Z,1020.13
2019-03-26T02:11:57.656Z,1020.19
2019-03-26T02:12:57.624Z,1020.17
2019-03-26T02:13:57.606Z,1020.14
2019-03-26T02:14:57.606Z,1020.13
2019-03-26T02:15:57.588Z,1020.09
2019-03-26T02:16:57.614Z,1020.12
2019-03-26T02:17:57.566Z,1020.07
2019-03-26T02:18:57.558Z,1020.02
2019-03-26T02:19:57.552Z,1020.10
2019-03-26T02:20:57.534Z,1020.11
2019-03-26T02:21:57.550Z,1020.06
2019-03-26T02:22:57.534Z,1020.06
2019-03-26T02:23:57.509Z,1020.09
2019-03-26T02:24:57.499Z,1020.11
2019-03-26T02:25:57.482Z,1020.17
2019-03-26T02:26:57.496Z,1020.20
2019-03-26T02:27:57.458Z,1020.15
2019-03-26T02:28:57.452Z,1020.14
2019-03-26T02:29:57.442Z,1020.15
2019-03-26T02:30:57.435Z,1020.16
2019-03-26T02:31:57.441Z,1020.18
2019-03-26T02:33:58.502Z,1020.21
2019-03-26T02:34:57.409Z,1020.26
2019-03-26T02:35:57.374Z,1020.26
2019-03-26T02:36:57.387Z,1020.26
2019-03-26T02:37:57.354Z,1020.30
2019-03-26T02:38:57.349Z,1020.32
2019-03-26T02:39:57.357Z,1020.31
2019-03-26T02:40:57.328Z,1020.38
2019-03-26T02:41:57.318Z,1020.30
2019-03-26T02:42:57.324Z,1020.29
2019-03-26T02:43:57.299Z,1020.37
2019-03-26T02:44:57.306Z,1020.30
2019-03-26T02:45:57.273Z,1020.27
2019-03-26T02:46:57.275Z,1020.27
2019-03-26T02:47:57.293Z,1020.32
2019-03-26T02:48:57.232Z,1020.32
2019-03-26T02:49:57.230Z,1020.34
2019-03-26T02:50:57.215Z,1020.32
2019-03-26T02:51:57.212Z,1020.30
2019-03-26T02:52:57.220Z,1020.31
2019-03-26T02:53:57.181Z,1020.32
2019-03-26T02:54:57.173Z,1020.28
2019-03-26T02:55:57.176Z,1020.24
2019-03-26T02:56:57.175Z,1020.27
2019-03-26T02:57:57.161Z,1020.21
2019-03-26T02:58:57.129Z,1020.21
2019-03-26T02:59:57.123Z,1020.23
2019-03-26T03:00:57.117Z,1020.22
2019-03-26T03:01:57.156Z,1020.22
2019-03-26T03:02:57.115Z,1020.23
2019-03-26T03:03:57.084Z,1020.17
2019-03-26T03:04:57.081Z,1020.15
2019-03-26T03:05:57.067Z,1020.11
2019-03-26T03:06:57.053Z,1020.18
2019-03-26T03:07:57.060Z,1020.14
2019-03-26T03:08:57.029Z,1020.16
2019-03-26T03:09:57.020Z,1020.18
2019-03-26T03:10:57.004Z,1020.18
2019-03-26T03:11:57.066Z,1020.17
2019-03-26T03:12:57.024Z,1020.14
2019-03-26T03:13:56.974Z,1020.10
2019-03-26T03:14:56.970Z,1020.08
2019-03-26T03:15:56.957Z,1020.06
2019-03-26T03:16:56.936Z,1020.10
2019-03-26T03:17:56.950Z,1020.13
2019-03-26T03:18:56.927Z,1020.12
2019-03-26T03:19:56.920Z,1020.05
2019-03-26T03:20:56.898Z,1020.11
2019-03-26T03:21:56.891Z,1020.03
2019-03-26T03:22:56.912Z,1020.00
2019-03-26T03:23:56.862Z,1020.02
2019-03-26T03:24:56.861Z,1020.07
2019-03-26T03:25:56.866Z,1019.99
2019-03-26T03:26:56.881Z,1020.02
2019-03-26T03:27:56.852Z,1019.97
2019-03-26T03:28:56.819Z,1019.98
2019-03-26T03:29:56.822Z,1019.98
2019-03-26T03:30:56.824Z,1019.99
2019-03-26T03:31:56.821Z,1019.94
2019-03-26T03:32:56.789Z,1019.96
2019-03-26T03:33:56.841Z,1019.94
2019-03-26T03:34:56.773Z,1019.96
2019-03-26T03:35:56.738Z,1019.89
2019-03-26T03:36:56.738Z,1019.88
2019-03-26T03:37:56.749Z,1019.88
2019-03-26T03:38:56.722Z,1019.98
2019-03-26T03:39:56.707Z,1019.95
2019-03-26T03:40:56.693Z,1019.92
2019-03-26T03:41:56.677Z,1019.97
2019-03-26T03:42:56.687Z,1019.93
2019-03-26T03:43:56.660Z,1019.89
2019-03-26T03:44:56.651Z,1019.87
2019-03-26T03:45:56.658Z,1019.91
2019-03-26T03:46:56.627Z,1019.88
2019-03-26T03:47:56.641Z,1019.91
2019-03-26T03:48:56.610Z,1019.88
2019-03-26T03:49:56.598Z,1019.87
2019-03-26T03:50:56.596Z,1019.84
2019-03-26T03:51:56.573Z,1019.83
2019-03-26T03:52:56.611Z,1019.82
2019-03-26T03:53:56.561Z,1019.78
2019-03-26T03:54:56.655Z,1019.79
2019-03-26T03:55:56.552Z,1019.73
2019-03-26T03:56:56.521Z,1019.74
2019-03-26T03:57:56.545Z,1019.75
2019-03-26T03:58:56.499Z,1019.76
2019-03-26T03:59:56.523Z,1019.71
2019-03-26T04:00:56.478Z,1019.74
2019-03-26T04:01:56.467Z,1019.82
2019-03-26T04:02:56.498Z,1019.80
2019-03-26T04:03:56.446Z,1019.77
2019-03-26T04:04:56.447Z,1019.80
2019-03-26T04:06:09.116Z,1019.81
2019-03-26T04:06:57.424Z,1019.77
2019-03-26T04:07:56.459Z,1019.76
2019-03-26T04:08:56.417Z,1019.83
2019-03-26T04:09:56.381Z,1019.86
2019-03-26T04:10:56.477Z,1019.81
2019-03-26T04:11:56.363Z,1019.82
2019-03-26T04:12:56.363Z,1019.80
2019-03-26T04:13:56.368Z,1019.76
2019-03-26T04:14:56.328Z,1019.80
2019-03-26T04:15:56.327Z,1019.76
2019-03-26T04:16:56.326Z,1019.76
2019-03-26T04:17:56.302Z,1019.75
2019-03-26T04:18:56.307Z,1019.75
2019-03-26T04:19:56.274Z,1019.76
2019-03-26T04:20:56.260Z,1019.72
2019-03-26T04:21:56.261Z,1019.72
2019-03-26T04:22:56.265Z,1019.72
2019-03-26T04:23:56.274Z,1019.70
2019-03-26T04:24:56.236Z,1019.74
2019-03-26T04:25:56.229Z,1019.72
2019-03-26T04:26:56.197Z,1019.78
2019-03-26T04:27:56.195Z,1019.73
2019-03-26T04:28:56.200Z,1019.66
2019-03-26T04:29:56.187Z,1019.72
2019-03-26T04:30:56.161Z,1019.73
2019-03-26T04:31:56.151Z,1019.73
2019-03-26T04:32:56.141Z,1019.74
2019-03-26T04:33:56.244Z,1019.78
2019-03-26T04:34:56.122Z,1019.82
2019-03-26T04:35:56.114Z,1019.75
2019-03-26T04:36:56.094Z,1019.81
2019-03-26T04:37:56.190Z,1019.76
2019-03-26T04:38:56.096Z,1019.86
2019-03-26T04:39:56.062Z,1019.80
2019-03-26T04:40:56.053Z,1019.78
2019-03-26T04:41:56.053Z,1019.84
2019-03-26T04:42:56.042Z,1019.85
2019-03-26T04:43:56.099Z,1019.85
2019-03-26T04:44:56.026Z,1019.93
2019-03-26T04:45:55.996Z,1019.87
2019-03-26T04:46:55.994Z,1019.89
2019-03-26T04:47:55.982Z,1019.96
2019-03-26T04:48:55.967Z,1019.95
2019-03-26T04:49:55.974Z,1019.92
2019-03-26T04:50:55.944Z,1019.96
2019-03-26T04:51:55.942Z,1019.99
2019-03-26T04:52:55.936Z,1020.00
2019-03-26T04:53:55.941Z,1019.92
2019-03-26T04:54:55.939Z,1019.97
2019-03-26T04:55:55.899Z,1019.90
2019-03-26T04:56:55.884Z,1019.93
2019-03-26T04:57:55.882Z,1019.94
2019-03-26T04:58:55.871Z,1019.94
2019-03-26T04:59:55.873Z,1020.00
2019-03-26T05:00:55.840Z,1020.03
2019-03-26T05:01:55.830Z,1019.97
2019-03-26T05:02:55.827Z,1020.04
2019-03-26T05:03:55.806Z,1020.04
2019-03-26T05:04:55.819Z,1020.15
2019-03-26T05:05:55.806Z,1020.04
2019-03-26T05:06:55.779Z,1020.09
2019-03-26T05:07:55.767Z,1020.02
2019-03-26T05:08:55.760Z,1020.04
2019-03-26T05:09:55.771Z,1020.03
2019-03-26T05:10:55.748Z,1020.16
2019-03-26T05:11:55.728Z,1020.16
2019-03-26T05:12:55.714Z,1020.11
2019-03-26T05:13:55.700Z,1020.16
2019-03-26T05:14:55.710Z,1020.19
2019-03-26T05:15:55.715Z,1020.18
2019-03-26T05:16:55.682Z,1020.21
2019-03-26T05:17:56.898Z,1020.16
2019-03-26T05:18:55.654Z,1020.22
2019-03-26T05:19:55.659Z,1020.24
2019-03-26T05:20:55.650Z,1020.25
2019-03-26T05:21:55.621Z,1020.23
2019-03-26T05:22:55.630Z,1020.19
2019-03-26T05:23:55.606Z,1020.30
2019-03-26T05:24:55.651Z,1020.27
2019-03-26T05:25:55.899Z,1020.25
2019-03-26T05:26:55.589Z,1020.30
2019-03-26T05:27:55.562Z,1020.21
2019-03-26T05:28:55.559Z,1020.30
2019-03-26T05:29:55.536Z,1020.28
2019-03-26T05:30:55.581Z,1020.28
2019-03-26T05:31:55.516Z,1020.31
2019-03-26T05:32:55.505Z,1020.40
2019-03-26T05:33:55.510Z,1020.39
2019-03-26T05:34:55.497Z,1020.56
2019-03-26T05:35:55.505Z,1020.42
2019-03-26T05:36:55.458Z,1020.41
2019-03-26T05:37:55.453Z,1020.42
2019-03-26T05:38:55.437Z,1020.53
2019-03-26T05:39:55.480Z,1020.55
2019-03-26T05:40:55.508Z,1020.45
2019-03-26T05:41:55.406Z,1020.39
2019-03-26T05:42:55.403Z,1020.37
2019-03-26T05:43:55.398Z,1020.36
2019-03-26T05:44:55.373Z,1020.37
2019-03-26T05:45:55.378Z,1020.37
2019-03-26T05:46:55.354Z,1020.35
2019-03-26T05:47:55.349Z,1020.41
2019-03-26T05:48:55.346Z,1020.40
2019-03-26T05:49:55.335Z,1020.44
2019-03-26T05:50:55.434Z,1020.47
2019-03-26T05:51:55.318Z,1020.43
2019-03-26T05:52:55.291Z,1020.54
2019-03-26T05:53:55.282Z,1020.42
2019-03-26T05:54:55.283Z,1020.47
2019-03-26T05:55:55.291Z,1020.50
2019-03-26T05:56:55.255Z,1020.54
2019-03-26T05:57:55.328Z,1020.50
2019-03-26T05:58:55.229Z,1020.47
2019-03-26T05:59:55.221Z,1020.48
2019-03-26T06:00:55.243Z,1020.57
2019-03-26T06:01:55.219Z,1020.49
2019-03-26T06:02:55.195Z,1020.45
2019-03-26T06:03:55.189Z,1020.53
2019-03-26T06:04:55.164Z,1020.56
2019-03-26T06:05:55.288Z,1020.57
2019-03-26T06:07:04.728Z,1020.56
2019-03-26T06:07:56.167Z,1020.51
2019-03-26T06:08:55.147Z,1020.49
2019-03-26T06:09:55.124Z,1020.47
2019-03-26T06:10:55.136Z,1020.40
2019-03-26T06:11:55.093Z,1020.46
2019-03-26T06:12:55.121Z,1020.47
2019-03-26T06:13:55.069Z,1020.47
2019-03-26T06:14:55.075Z,1020.56
2019-03-26T06:15:55.102Z,1020.52
2019-03-26T06:16:55.051Z,1020.45
2019-03-26T06:17:57.500Z,1020.47
2019-03-26T06:18:55.045Z,1020.43
2019-03-26T06:19:55.003Z,1020.46
2019-03-26T06:20:55.169Z,1020.51
2019-03-26T06:21:55.017Z,1020.48
2019-03-26T06:22:54.972Z,1020.50
2019-03-26T06:23:57.833Z,1020.48
2019-03-26T06:24:54.963Z,1020.39
2019-03-26T06:25:54.942Z,1020.40
2019-03-26T06:26:54.949Z,1020.39
2019-03-26T06:27:54.946Z,1020.43
2019-03-26T06:28:54.915Z,1020.37
2019-03-26T06:29:54.912Z,1020.44
2019-03-26T06:30:54.901Z,1020.44
2019-03-26T06:31:54.929Z,1020.38
2019-03-26T06:32:54.881Z,1020.42
2019-03-26T06:33:54.857Z,1020.35
2019-03-26T06:34:54.856Z,1020.39
2019-03-26T06:35:54.837Z,1020.36
2019-03-26T06:36:54.849Z,1020.37
2019-03-26T06:37:54.844Z,1020.51
2019-03-26T06:38:54.827Z,1020.41
2019-03-26T06:39:54.831Z,1020.38
2019-03-26T06:40:54.792Z,1020.45
2019-03-26T06:41:54.901Z,1020.47
2019-03-26T06:42:54.789Z,1020.46
2019-03-26T06:43:54.769Z,1020.43
2019-03-26T06:44:54.783Z,1020.50
2019-03-26T06:45:54.738Z,1020.50
2019-03-26T06:46:54.749Z,1020.45
2019-03-26T06:47:54.795Z,1020.42
2019-03-26T06:48:54.718Z,1020.43
2019-03-26T06:49:54.705Z,1020.42
2019-03-26T06:50:54.749Z,1020.39
2019-03-26T06:51:55.192Z,1020.49
2019-03-26T06:52:54.680Z,1020.47
2019-03-26T06:53:54.655Z,1020.48
2019-03-26T06:54:54.643Z,1020.50
2019-03-26T06:55:54.659Z,1020.57
2019-03-26T06:56:54.644Z,1020.53
2019-03-26T06:57:54.649Z,1020.54
2019-03-26T06:58:54.600Z,1020.62
2019-03-26T06:59:54.587Z,1020.49
2019-03-26T07:00:54.579Z,1020.52
2019-03-26T07:01:54.583Z,1020.51
2019-03-26T07:02:54.598Z,1020.57
2019-03-26T07:03:54.551Z,1020.61
2019-03-26T07:04:54.549Z,1020.57
2019-03-26T07:05:54.525Z,1020.58
2019-03-26T07:06:54.520Z,1020.55
2019-03-26T07:07:54.574Z,1020.61
2019-03-26T07:08:54.494Z,1020.60
2019-03-26T07:09:54.495Z,1020.60
2019-03-26T07:10:54.476Z,1020.65
2019-03-26T07:11:54.475Z,1020.66
2019-03-26T07:12:54.496Z,1020.61
2019-03-26T07:13:54.463Z,1020.64
2019-03-26T07:14:54.444Z,1020.65
2019-03-26T07:15:54.426Z,1020.63
2019-03-26T07:16:54.419Z,1020.65
2019-03-26T07:17:54.445Z,1020.55
2019-03-26T07:18:54.415Z,1020.51
2019-03-26T07:19:54.407Z,1020.51
2019-03-26T07:20:54.371Z,1020.53
2019-03-26T07:21:54.354Z,1020.55
2019-03-26T07:22:54.378Z,1020.51
2019-03-26T07:24:55.469Z,1020.55
2019-03-26T07:25:54.335Z,1020.52
2019-03-26T07:26:54.299Z,1020.56
2019-03-26T07:27:54.317Z,1020.51
2019-03-26T07:28:56.660Z,1020.48
2019-03-26T07:29:54.287Z,1020.46
2019-03-26T07:30:54.293Z,1020.43
2019-03-26T07:31:54.274Z,1020.50
2019-03-26T07:32:54.320Z,1020.43
2019-03-26T07:33:54.233Z,1020.46
2019-03-26T07:34:54.222Z,1020.43
2019-03-26T07:35:54.218Z,1020.47
2019-03-26T07:36:54.209Z,1020.41
2019-03-26T07:37:54.196Z,1020.36
2019-03-26T07:38:54.207Z,1020.47
2019-03-26T07:39:54.174Z,1020.36
2019-03-26T07:40:54.183Z,1020.38
2019-03-26T07:41:54.153Z,1020.37
2019-03-26T07:42:54.135Z,1020.47
2019-03-26T07:43:54.141Z,1020.45
2019-03-26T07:44:54.127Z,1020.38
2019-03-26T07:45:54.110Z,1020.42
2019-03-26T07:46:54.097Z,1020.40
2019-03-26T07:47:54.091Z,1020.29
2019-03-26T07:48:54.105Z,1020.32
2019-03-26T07:49:54.055Z,1020.36
2019-03-26T07:50:54.052Z,1020.27
2019-03-26T07:51:54.058Z,1020.26
2019-03-26T07:52:54.035Z,1020.24
2019-03-26T07:53:54.039Z,1020.31
2019-03-26T07:54:54.075Z,1020.34
2019-03-26T07:55:54.012Z,1020.22
2019-03-26T07:56:53.993Z,1020.21
2019-03-26T07:57:53.984Z,1020.19
2019-03-26T07:58:54.003Z,1020.10
2019-03-26T07:59:54.007Z,1020.12
2019-03-26T08:00:53.941Z,1020.15
2019-03-26T08:01:53.933Z,1020.12
2019-03-26T08:02:53.933Z,1020.08
2019-03-26T08:03:53.935Z,1020.02
2019-03-26T08:04:53.904Z,1020.07
2019-03-26T08:05:53.920Z,1020.00
2019-03-26T08:06:53.886Z,1020.01
2019-03-26T08:07:58.527Z,1020.06
2019-03-26T08:08:54.893Z,1019.96
2019-03-26T08:09:53.848Z,1019.94
2019-03-26T08:10:53.844Z,1019.94
2019-03-26T08:11:53.824Z,1019.96
2019-03-26T08:12:53.832Z,1020.07
2019-03-26T08:13:53.891Z,1019.92
2019-03-26T08:14:53.811Z,1019.97
2019-03-26T08:15:53.815Z,1019.93
2019-03-26T08:16:53.802Z,1019.87
2019-03-26T08:17:53.766Z,1019.84
2019-03-26T08:18:53.774Z,1019.95
2019-03-26T08:21:13.582Z,1020.01
2019-03-26T08:22:13.584Z,1019.86
2019-03-26T08:23:13.549Z,1019.84
2019-03-26T08:24:13.575Z,1019.90
2019-03-26T08:25:13.532Z,1019.91
2019-03-26T08:26:13.533Z,1019.88
2019-03-26T08:27:13.509Z,1019.90
2019-03-26T08:28:13.496Z,1019.88
2019-03-26T08:29:13.980Z,1019.88
2019-03-26T08:30:13.481Z,1019.88
2019-03-26T08:31:13.471Z,1019.99
2019-03-26T08:32:13.456Z,1019.98
2019-03-26T08:33:13.451Z,1019.90
2019-03-26T08:34:13.456Z,1019.99
2019-03-26T08:35:13.426Z,1019.77
2019-03-26T08:36:13.408Z,1019.99
2019-03-26T08:37:13.416Z,1019.93
2019-03-26T08:38:13.594Z,1019.88
2019-03-26T08:39:13.432Z,1019.87
2019-03-26T08:40:13.461Z,1019.94
2019-03-26T08:41:13.373Z,1019.84
2019-03-26T08:42:21.484Z,1019.91
2019-03-26T08:43:13.368Z,1020.04
2019-03-26T08:44:13.354Z,1020.04
2019-03-26T08:45:13.352Z,1019.91
2019-03-26T08:46:13.309Z,1019.90
2019-03-26T08:47:13.292Z,1019.94
2019-03-26T08:48:13.280Z,1019.82
2019-03-26T08:49:14.306Z,1019.78
2019-03-26T08:50:13.513Z,1020.00
2019-03-26T08:51:13.250Z,1019.88
2019-03-26T08:52:13.246Z,1020.19
2019-03-26T08:53:13.232Z,1019.98
2019-03-26T08:54:13.224Z,1020.04
2019-03-26T08:55:13.230Z,1019.93
2019-03-26T08:56:13.204Z,1020.08
2019-03-26T08:57:13.184Z,1019.89
2019-03-26T08:58:13.176Z,1019.97
2019-03-26T08:59:13.162Z,1019.95
2019-03-26T09:00:13.188Z,1019.97
2019-03-26T09:01:13.147Z,1019.85
2019-03-26T09:02:13.148Z,1019.91
2019-03-26T09:03:13.117Z,1020.03
2019-03-26T09:04:13.113Z,1019.96
2019-03-26T09:05:13.136Z,1019.94
2019-03-26T09:06:13.098Z,1019.91
2019-03-26T09:07:13.086Z,1019.89
2019-03-26T09:08:24.852Z,1019.97
2019-03-26T09:09:14.053Z,1019.91
2019-03-26T09:10:13.097Z,1019.92
2019-03-26T09:11:13.040Z,1019.80
2019-03-26T09:12:13.032Z,1019.91
2019-03-26T09:13:13.018Z,1019.76
2019-03-26T09:14:12.996Z,1019.90
2019-03-26T09:15:14.572Z,1019.85
2019-03-26T09:16:12.984Z,1019.97
2019-03-26T09:17:12.974Z,1019.91
2019-03-26T09:18:12.965Z,1019.88
2019-03-26T09:19:12.976Z,1019.90
2019-03-26T09:20:12.961Z,1019.97
2019-03-26T09:21:12.930Z,1019.99
2019-03-26T09:22:12.924Z,1019.99
2019-03-26T09:23:12.917Z,1020.00
2019-03-26T09:24:12.896Z,1019.91
2019-03-26T09:25:12.923Z,1019.91
2019-03-26T09:26:12.874Z,1019.89
2019-03-26T09:27:12.872Z,1019.91
2019-03-26T09:28:12.861Z,1019.90
2019-03-26T09:29:12.863Z,1019.91
2019-03-26T09:30:12.862Z,1019.90
2019-03-26T09:31:12.851Z,1019.90
2019-03-26T09:32:12.809Z,1019.96
2019-03-26T09:33:12.801Z,1019.80
2019-03-26T09:34:12.791Z,1019.80
2019-03-26T09:35:12.803Z,1019.79
2019-03-26T09:36:12.799Z,1019.80
2019-03-26T09:37:12.760Z,1019.75
2019-03-26T09:38:12.744Z,1019.74
2019-03-26T09:39:12.746Z,1019.76
2019-03-26T09:40:12.748Z,1019.59
2019-03-26T09:41:12.738Z,1019.73
2019-03-26T09:42:12.728Z,1019.70
2019-03-26T09:43:12.698Z,1019.84
2019-03-26T09:44:12.693Z,1019.60
2019-03-26T09:45:12.676Z,1019.89
2019-03-26T09:46:12.699Z,1019.67
2019-03-26T09:47:16.450Z,1019.82
2019-03-26T09:48:12.637Z,1019.66
2019-03-26T09:49:12.637Z,1019.74
2019-03-26T09:50:12.620Z,1019.82
2019-03-26T09:51:12.623Z,1019.87
2019-03-26T09:52:12.606Z,1019.98
2019-03-26T09:53:12.595Z,1019.85
2019-03-26T09:54:12.588Z,1019.93
2019-03-26T09:55:12.570Z,1019.84
2019-03-26T09:56:12.636Z,1019.79
2019-03-26T09:57:12.592Z,1019.91
2019-03-26T09:58:13.521Z,1019.91
2019-03-26T09:59:12.545Z,1020.03
2019-03-26T10:00:12.518Z,1019.79
2019-03-26T10:01:12.514Z,1019.92
2019-03-26T10:02:12.485Z,1019.88
2019-03-26T10:03:12.479Z,1019.84
2019-03-26T10:04:12.489Z,1019.99
2019-03-26T10:05:12.453Z,1019.90
2019-03-26T10:06:22.838Z,1019.80
2019-03-26T10:07:21.458Z,1019.69
2019-03-26T10:08:13.429Z,1019.73
2019-03-26T10:09:12.416Z,1019.69
2019-03-26T10:10:12.414Z,1019.62
2019-03-26T10:11:12.415Z,1019.71
2019-03-26T10:12:12.377Z,1019.63
2019-03-26T10:13:12.399Z,1019.76
2019-03-26T10:14:12.357Z,1019.75
2019-03-26T10:15:12.354Z,1019.69
2019-03-26T10:16:12.362Z,1019.67
2019-03-26T10:17:12.321Z,1019.67
2019-03-26T10:18:20.520Z,1019.64
2019-03-26T10:19:12.305Z,1019.62
2019-03-26T10:20:12.279Z,1019.72
2019-03-26T10:21:19.665Z,1019.67
2019-03-26T10:22:12.258Z,1019.69
2019-03-26T10:23:12.265Z,1019.63
2019-03-26T10:24:12.241Z,1019.62
2019-03-26T10:25:12.242Z,1019.69
2019-03-26T10:26:12.259Z,1019.65
2019-03-26T10:27:12.232Z,1019.61
2019-03-26T10:28:12.197Z,1019.47
2019-03-26T10:29:28.879Z,1019.53
2019-03-26T10:30:13.173Z,1019.51
2019-03-26T10:31:12.165Z,1019.45
2019-03-26T10:32:12.191Z,1019.48
2019-03-26T10:33:12.157Z,1019.60
2019-03-26T10:34:12.136Z,1019.60
2019-03-26T10:35:12.133Z,1019.59
2019-03-26T10:36:12.132Z,1019.66
2019-03-26T10:37:12.149Z,1019.76
2019-03-26T10:38:12.111Z,1019.78
2019-03-26T10:39:12.075Z,1019.78
2019-03-26T10:40:12.064Z,1019.68
2019-03-26T10:41:12.053Z,1019.64
2019-03-26T10:42:12.073Z,1019.70
2019-03-26T10:43:12.033Z,1019.73
2019-03-26T10:44:12.033Z,1019.71
2019-03-26T10:45:12.007Z,1019.69
2019-03-26T10:46:12.056Z,1019.64
2019-03-26T10:47:12.014Z,1019.55
2019-03-26T10:48:11.975Z,1019.59
2019-03-26T10:49:11.975Z,1019.59
2019-03-26T10:50:11.971Z,1019.64
2019-03-26T10:51:12.106Z,1019.56
2019-03-26T10:52:11.949Z,1019.52
2019-03-26T10:53:11.927Z,1019.57
2019-03-26T10:54:11.913Z,1019.68
2019-03-26T10:55:11.927Z,1019.57
2019-03-26T10:56:11.917Z,1019.45
2019-03-26T10:57:11.925Z,1019.54
2019-03-26T10:58:11.885Z,1019.39
2019-03-26T10:59:11.879Z,1019.60
2019-03-26T11:00:11.849Z,1019.52
2019-03-26T11:01:11.851Z,1019.57
2019-03-26T11:02:11.856Z,1019.55
2019-03-26T11:03:11.814Z,1019.45
2019-03-26T11:04:11.817Z,1019.46
2019-03-26T11:05:11.818Z,1019.48
2019-03-26T11:06:11.788Z,1019.45
2019-03-26T11:07:11.837Z,1019.44
2019-03-26T11:08:11.771Z,1019.43
2019-03-26T11:09:23.023Z,1019.34
2019-03-26T11:10:12.742Z,1019.30
2019-03-26T11:11:11.731Z,1019.36
2019-03-26T11:12:11.775Z,1019.31
2019-03-26T11:13:11.729Z,1019.34
2019-03-26T11:14:11.702Z,1019.29
2019-03-26T11:15:11.684Z,1019.36
2019-03-26T11:16:11.678Z,1019.27
2019-03-26T11:17:11.699Z,1019.28
2019-03-26T11:18:11.664Z,1019.23
2019-03-26T11:19:11.671Z,1019.19
2019-03-26T11:20:11.677Z,1019.14
2019-03-26T11:21:11.616Z,1019.17
2019-03-26T11:22:11.626Z,1019.17
2019-03-26T11:23:11.640Z,1019.20
2019-03-26T11:24:11.596Z,1019.15
2019-03-26T11:25:12.283Z,1019.22
2019-03-26T11:26:11.559Z,1019.15
2019-03-26T11:27:11.553Z,1019.34
2019-03-26T11:28:11.568Z,1019.29
2019-03-26T11:29:11.536Z,1019.39
2019-03-26T11:30:11.535Z,1019.48
2019-03-26T11:31:11.517Z,1019.35
2019-03-26T11:32:11.501Z,1019.45
2019-03-26T11:33:11.516Z,1019.41
2019-03-26T11:34:11.475Z,1019.48
2019-03-26T11:35:11.470Z,1019.40
2019-03-26T11:36:11.473Z,1019.43
2019-03-26T11:37:11.447Z,1019.50
2019-03-26T11:38:11.445Z,1019.55
2019-03-26T11:39:11.432Z,1019.45
2019-03-26T11:41:12.505Z,1019.42
2019-03-26T11:42:11.427Z,1019.51
2019-03-26T11:43:11.529Z,1019.47
2019-03-26T11:44:11.372Z,1019.44
2019-03-26T11:45:11.377Z,1019.46
2019-03-26T11:46:11.361Z,1019.35
2019-03-26T11:47:11.357Z,1019.44
2019-03-26T11:48:11.364Z,1019.42
2019-03-26T11:49:11.317Z,1019.40
2019-03-26T11:50:11.328Z,1019.46
2019-03-26T11:51:11.317Z,1019.42
2019-03-26T11:52:11.295Z,1019.40
2019-03-26T11:53:11.300Z,1019.34
2019-03-26T11:54:11.261Z,1019.36
2019-03-26T11:55:11.255Z,1019.39
2019-03-26T11:56:11.252Z,1019.43
2019-03-26T11:57:11.245Z,1019.50
2019-03-26T11:58:11.248Z,1019.42
2019-03-26T11:59:11.234Z,1019.43
2019-03-26T12:00:11.260Z,1019.38
2019-03-26T12:01:11.243Z,1019.31
2019-03-26T12:02:11.241Z,1019.30
2019-03-26T12:03:11.206Z,1019.33
2019-03-26T12:04:11.169Z,1019.47
2019-03-26T12:05:11.154Z,1019.48
2019-03-26T12:06:11.133Z,1019.42
2019-03-26T12:07:11.129Z,1019.44
2019-03-26T12:08:11.144Z,1019.38
2019-03-26T12:09:11.109Z,1019.42
2019-03-26T12:10:11.123Z,1019.48